sensor_id;sensor_type;location;lat;lon;timestamp;P1;durP1;ratioP1;P2;durP2;ratioP2
39864;SDS011;25538;48.392;9.976;2022-10-31T00:02:23;8.03;;;6.83;;
39864;SDS011;25538;48.392;9.976;2022-10-31T00:04:48;7.20;;;6.40;;
39864;SDS011;25538;48.392;9.976;2022-10-31T00:07:14;6.83;;;5.93;;
39864;SDS011;25538;48.392;9.976;2022-10-31T00:09:40;6.90;;;6.20;;
39864;SDS011;25538;48.392;9.976;2022-10-31T00:12:06;9.73;;;6.80;;
39864;SDS011;25538;48.392;9.976;2022-10-31T00:14:32;11.40;;;7.43;;
39864;SDS011;25538;48.392;9.976;2022-10-31T00:16:58;10.73;;;6.23;;
39864;SDS011;25538;48.392;9.976;2022-10-31T00:19:24;8.20;;;7.40;;
39864;SDS011;25538;48.392;9.976;2022-10-31T00:21:53;12.90;;;6.63;;
39864;SDS011;25538;48.392;9.976;2022-10-31T00:24:19;8.68;;;6.13;;
39864;SDS011;25538;48.392;9.976;2022-10-31T00:26:45;11.98;;;6.40;;
39864;SDS011;25538;48.392;9.976;2022-10-31T00:29:11;7.83;;;6.07;;
39864;SDS011;25538;48.392;9.976;2022-10-31T00:31:38;11.95;;;6.68;;
39864;SDS011;25538;48.392;9.976;2022-10-31T00:34:03;8.17;;;6.17;;
39864;SDS011;25538;48.392;9.976;2022-10-31T00:36:29;11.20;;;6.90;;
39864;SDS011;25538;48.392;9.976;2022-10-31T00:38:57;9.90;;;6.43;;
39864;SDS011;25538;48.392;9.976;2022-10-31T00:41:24;7.97;;;5.78;;
39864;SDS011;25538;48.392;9.976;2022-10-31T00:43:50;9.02;;;6.80;;
39864;SDS011;25538;48.392;9.976;2022-10-31T00:46:16;7.50;;;5.20;;
39864;SDS011;25538;48.392;9.976;2022-10-31T00:48:42;10.33;;;6.17;;
39864;SDS011;25538;48.392;9.976;2022-10-31T00:51:08;7.20;;;5.70;;
39864;SDS011;25538;48.392;9.976;2022-10-31T00:53:34;9.18;;;5.95;;
39864;SDS011;25538;48.392;9.976;2022-10-31T00:56:00;12.07;;;6.70;;
39864;SDS011;25538;48.392;9.976;2022-10-31T00:58:26;8.50;;;6.25;;
39864;SDS011;25538;48.392;9.976;2022-10-31T01:00:52;12.03;;;6.53;;
39864;SDS011;25538;48.392;9.976;2022-10-31T01:03:25;8.48;;;5.85;;
39864;SDS011;25538;48.392;9.976;2022-10-31T01:05:55;7.88;;;6.25;;
39864;SDS011;25538;48.392;9.976;2022-10-31T01:08:26;11.00;;;6.00;;
39864;SDS011;25538;48.392;9.976;2022-10-31T01:13:45;10.55;;;5.85;;
39864;SDS011;25538;48.392;9.976;2022-10-31T01:16:16;8.40;;;5.75;;
39864;SDS011;25538;48.392;9.976;2022-10-31T01:18:44;10.10;;;6.55;;
39864;SDS011;25538;48.392;9.976;2022-10-31T01:21:11;11.00;;;5.55;;
39864;SDS011;25538;48.392;9.976;2022-10-31T01:23:39;15.85;;;7.20;;
39864;SDS011;25538;48.392;9.976;2022-10-31T01:26:10;10.02;;;6.40;;
39864;SDS011;25538;48.392;9.976;2022-10-31T01:28:39;12.40;;;6.07;;
39864;SDS011;25538;48.392;9.976;2022-10-31T01:31:15;10.90;;;6.30;;
39864;SDS011;25538;48.392;9.976;2022-10-31T01:33:43;10.88;;;6.50;;
39864;SDS011;25538;48.392;9.976;2022-10-31T01:36:43;7.70;;;5.85;;
39864;SDS011;25538;48.392;9.976;2022-10-31T01:39:04;7.65;;;6.07;;
39864;SDS011;25538;48.392;9.976;2022-10-31T01:41:39;12.18;;;6.07;;
39864;SDS011;25538;48.392;9.976;2022-10-31T01:49:47;9.40;;;6.00;;
39864;SDS011;25538;48.392;9.976;2022-10-31T01:55:11;7.93;;;5.90;;
39864;SDS011;25538;48.392;9.976;2022-10-31T01:57:43;9.32;;;6.35;;
39864;SDS011;25538;48.392;9.976;2022-10-31T02:00:13;10.85;;;6.30;;
39864;SDS011;25538;48.392;9.976;2022-10-31T02:02:40;11.07;;;6.30;;
39864;SDS011;25538;48.392;9.976;2022-10-31T02:05:09;17.15;;;6.60;;
39864;SDS011;25538;48.392;9.976;2022-10-31T02:07:39;7.65;;;5.80;;
39864;SDS011;25538;48.392;9.976;2022-10-31T02:10:10;7.25;;;6.05;;
39864;SDS011;25538;48.392;9.976;2022-10-31T02:12:36;9.27;;;6.25;;
39864;SDS011;25538;48.392;9.976;2022-10-31T02:15:03;11.95;;;6.65;;
39864;SDS011;25538;48.392;9.976;2022-10-31T02:17:30;8.50;;;5.97;;
39864;SDS011;25538;48.392;9.976;2022-10-31T02:20:04;10.00;;;5.32;;
39864;SDS011;25538;48.392;9.976;2022-10-31T02:33:42;7.85;;;6.15;;
39864;SDS011;25538;48.392;9.976;2022-10-31T02:36:27;8.40;;;6.20;;
39864;SDS011;25538;48.392;9.976;2022-10-31T02:44:39;10.80;;;7.45;;
39864;SDS011;25538;48.392;9.976;2022-10-31T02:47:11;9.38;;;6.20;;
39864;SDS011;25538;48.392;9.976;2022-10-31T02:52:28;8.25;;;6.05;;
39864;SDS011;25538;48.392;9.976;2022-10-31T02:54:56;9.85;;;6.03;;
39864;SDS011;25538;48.392;9.976;2022-10-31T02:57:27;7.78;;;6.10;;
39864;SDS011;25538;48.392;9.976;2022-10-31T03:00:04;13.60;;;6.57;;
39864;SDS011;25538;48.392;9.976;2022-10-31T03:02:53;7.40;;;5.50;;
39864;SDS011;25538;48.392;9.976;2022-10-31T03:05:40;8.50;;;5.60;;
39864;SDS011;25538;48.392;9.976;2022-10-31T03:11:00;11.30;;;6.03;;
39864;SDS011;25538;48.392;9.976;2022-10-31T03:13:33;9.23;;;7.00;;
39864;SDS011;25538;48.392;9.976;2022-10-31T03:16:13;8.43;;;6.80;;
39864;SDS011;25538;48.392;9.976;2022-10-31T03:21:23;8.30;;;5.85;;
39864;SDS011;25538;48.392;9.976;2022-10-31T03:23:57;7.22;;;6.45;;
39864;SDS011;25538;48.392;9.976;2022-10-31T03:26:26;9.18;;;6.10;;
39864;SDS011;25538;48.392;9.976;2022-10-31T03:28:57;6.65;;;5.97;;
39864;SDS011;25538;48.392;9.976;2022-10-31T03:31:32;11.50;;;6.15;;
39864;SDS011;25538;48.392;9.976;2022-10-31T03:34:02;9.90;;;5.15;;
39864;SDS011;25538;48.392;9.976;2022-10-31T03:36:31;6.85;;;5.50;;
39864;SDS011;25538;48.392;9.976;2022-10-31T03:39:00;12.25;;;6.85;;
39864;SDS011;25538;48.392;9.976;2022-10-31T03:41:31;10.25;;;6.32;;
39864;SDS011;25538;48.392;9.976;2022-10-31T03:44:04;6.97;;;5.78;;
39864;SDS011;25538;48.392;9.976;2022-10-31T03:46:34;7.55;;;6.05;;
39864;SDS011;25538;48.392;9.976;2022-10-31T03:49:00;7.68;;;6.30;;
39864;SDS011;25538;48.392;9.976;2022-10-31T03:51:43;13.95;;;6.10;;
39864;SDS011;25538;48.392;9.976;2022-10-31T03:54:18;10.70;;;6.32;;
39864;SDS011;25538;48.392;9.976;2022-10-31T03:59:36;10.38;;;5.85;;
39864;SDS011;25538;48.392;9.976;2022-10-31T04:02:10;9.13;;;6.50;;
39864;SDS011;25538;48.392;9.976;2022-10-31T04:04:41;7.53;;;5.90;;
39864;SDS011;25538;48.392;9.976;2022-10-31T04:07:09;10.15;;;5.68;;
39864;SDS011;25538;48.392;9.976;2022-10-31T04:09:37;13.35;;;6.40;;
39864;SDS011;25538;48.392;9.976;2022-10-31T04:12:07;11.30;;;6.80;;
39864;SDS011;25538;48.392;9.976;2022-10-31T04:14:37;8.52;;;5.72;;
39864;SDS011;25538;48.392;9.976;2022-10-31T04:17:07;11.70;;;6.93;;
39864;SDS011;25538;48.392;9.976;2022-10-31T04:19:36;7.55;;;5.18;;
39864;SDS011;25538;48.392;9.976;2022-10-31T04:22:02;14.10;;;6.40;;
39864;SDS011;25538;48.392;9.976;2022-10-31T04:24:28;7.18;;;5.15;;
39864;SDS011;25538;48.392;9.976;2022-10-31T04:26:53;8.27;;;6.23;;
39864;SDS011;25538;48.392;9.976;2022-10-31T04:29:19;7.00;;;5.60;;
39864;SDS011;25538;48.392;9.976;2022-10-31T04:31:45;7.97;;;6.50;;
39864;SDS011;25538;48.392;9.976;2022-10-31T04:34:11;10.63;;;7.03;;
39864;SDS011;25538;48.392;9.976;2022-10-31T04:36:37;10.93;;;5.40;;
39864;SDS011;25538;48.392;9.976;2022-10-31T04:39:03;14.35;;;7.32;;
39864;SDS011;25538;48.392;9.976;2022-10-31T04:41:29;11.10;;;6.60;;
39864;SDS011;25538;48.392;9.976;2022-10-31T04:43:55;9.47;;;6.37;;
39864;SDS011;25538;48.392;9.976;2022-10-31T04:46:21;8.07;;;5.83;;
39864;SDS011;25538;48.392;9.976;2022-10-31T04:48:47;9.80;;;5.93;;
39864;SDS011;25538;48.392;9.976;2022-10-31T04:51:13;7.40;;;5.50;;
39864;SDS011;25538;48.392;9.976;2022-10-31T04:53:39;10.47;;;4.70;;
39864;SDS011;25538;48.392;9.976;2022-10-31T04:56:05;10.07;;;5.47;;
39864;SDS011;25538;48.392;9.976;2022-10-31T04:58:31;8.02;;;5.80;;
39864;SDS011;25538;48.392;9.976;2022-10-31T05:00:57;10.00;;;5.40;;
39864;SDS011;25538;48.392;9.976;2022-10-31T05:03:23;10.70;;;5.50;;
39864;SDS011;25538;48.392;9.976;2022-10-31T05:05:49;11.20;;;5.80;;
39864;SDS011;25538;48.392;9.976;2022-10-31T05:08:15;6.90;;;6.20;;
39864;SDS011;25538;48.392;9.976;2022-10-31T05:10:41;7.07;;;6.00;;
39864;SDS011;25538;48.392;9.976;2022-10-31T05:13:07;12.32;;;6.00;;
39864;SDS011;25538;48.392;9.976;2022-10-31T05:15:33;8.32;;;5.53;;
39864;SDS011;25538;48.392;9.976;2022-10-31T05:17:59;16.15;;;6.55;;
39864;SDS011;25538;48.392;9.976;2022-10-31T05:20:27;14.52;;;6.70;;
39864;SDS011;25538;48.392;9.976;2022-10-31T05:22:54;7.85;;;6.20;;
39864;SDS011;25538;48.392;9.976;2022-10-31T05:25:22;8.02;;;5.75;;
39864;SDS011;25538;48.392;9.976;2022-10-31T05:27:50;8.25;;;6.97;;
39864;SDS011;25538;48.392;9.976;2022-10-31T05:30:18;15.18;;;6.80;;
39864;SDS011;25538;48.392;9.976;2022-10-31T05:32:47;12.40;;;6.30;;
39864;SDS011;25538;48.392;9.976;2022-10-31T05:35:15;10.35;;;6.63;;
39864;SDS011;25538;48.392;9.976;2022-10-31T05:37:43;7.18;;;5.80;;
39864;SDS011;25538;48.392;9.976;2022-10-31T05:40:10;10.83;;;6.83;;
39864;SDS011;25538;48.392;9.976;2022-10-31T05:42:38;7.43;;;6.70;;
39864;SDS011;25538;48.392;9.976;2022-10-31T05:45:05;8.38;;;5.80;;
39864;SDS011;25538;48.392;9.976;2022-10-31T05:47:32;10.07;;;6.60;;
39864;SDS011;25538;48.392;9.976;2022-10-31T05:49:58;13.03;;;5.77;;
39864;SDS011;25538;48.392;9.976;2022-10-31T05:52:24;9.20;;;6.07;;
39864;SDS011;25538;48.392;9.976;2022-10-31T05:54:50;9.03;;;5.97;;
39864;SDS011;25538;48.392;9.976;2022-10-31T05:57:16;8.37;;;6.00;;
39864;SDS011;25538;48.392;9.976;2022-10-31T05:59:42;9.50;;;5.90;;
39864;SDS011;25538;48.392;9.976;2022-10-31T06:02:08;13.40;;;6.57;;
39864;SDS011;25538;48.392;9.976;2022-10-31T06:04:34;7.60;;;6.00;;
39864;SDS011;25538;48.392;9.976;2022-10-31T06:07:00;9.53;;;5.80;;
39864;SDS011;25538;48.392;9.976;2022-10-31T06:09:26;10.07;;;6.20;;
39864;SDS011;25538;48.392;9.976;2022-10-31T06:11:52;13.77;;;6.90;;
39864;SDS011;25538;48.392;9.976;2022-10-31T06:14:18;13.40;;;6.73;;
39864;SDS011;25538;48.392;9.976;2022-10-31T06:16:44;11.93;;;7.53;;
39864;SDS011;25538;48.392;9.976;2022-10-31T06:19:09;8.53;;;6.80;;
39864;SDS011;25538;48.392;9.976;2022-10-31T06:21:35;7.17;;;6.57;;
39864;SDS011;25538;48.392;9.976;2022-10-31T06:24:01;7.80;;;6.40;;
39864;SDS011;25538;48.392;9.976;2022-10-31T06:26:28;11.50;;;6.18;;
39864;SDS011;25538;48.392;9.976;2022-10-31T06:28:53;10.73;;;6.23;;
39864;SDS011;25538;48.392;9.976;2022-10-31T06:31:19;12.93;;;6.57;;
39864;SDS011;25538;48.392;9.976;2022-10-31T06:33:45;10.70;;;5.67;;
39864;SDS011;25538;48.392;9.976;2022-10-31T06:36:11;8.83;;;5.57;;
39864;SDS011;25538;48.392;9.976;2022-10-31T06:38:37;13.60;;;6.30;;
39864;SDS011;25538;48.392;9.976;2022-10-31T06:41:04;11.70;;;6.00;;
39864;SDS011;25538;48.392;9.976;2022-10-31T06:43:30;10.32;;;6.07;;
39864;SDS011;25538;48.392;9.976;2022-10-31T06:45:57;6.72;;;5.07;;
39864;SDS011;25538;48.392;9.976;2022-10-31T06:48:23;10.00;;;6.50;;
39864;SDS011;25538;48.392;9.976;2022-10-31T06:50:49;10.27;;;8.55;;
39864;SDS011;25538;48.392;9.976;2022-10-31T06:53:15;6.77;;;6.07;;
39864;SDS011;25538;48.392;9.976;2022-10-31T06:55:41;8.48;;;5.90;;
39864;SDS011;25538;48.392;9.976;2022-10-31T06:58:08;8.38;;;5.13;;
39864;SDS011;25538;48.392;9.976;2022-10-31T07:00:35;8.02;;;4.97;;
39864;SDS011;25538;48.392;9.976;2022-10-31T07:03:03;7.60;;;5.63;;
39864;SDS011;25538;48.392;9.976;2022-10-31T07:05:30;10.48;;;5.45;;
39864;SDS011;25538;48.392;9.976;2022-10-31T07:07:57;9.20;;;5.05;;
39864;SDS011;25538;48.392;9.976;2022-10-31T07:10:25;11.93;;;6.60;;
39864;SDS011;25538;48.392;9.976;2022-10-31T07:12:56;8.43;;;5.63;;
39864;SDS011;25538;48.392;9.976;2022-10-31T07:15:23;7.65;;;4.65;;
39864;SDS011;25538;48.392;9.976;2022-10-31T07:17:50;13.40;;;4.90;;
39864;SDS011;25538;48.392;9.976;2022-10-31T07:20:16;6.32;;;5.18;;
39864;SDS011;25538;48.392;9.976;2022-10-31T07:22:42;8.50;;;5.40;;
39864;SDS011;25538;48.392;9.976;2022-10-31T07:25:09;10.67;;;5.60;;
39864;SDS011;25538;48.392;9.976;2022-10-31T07:27:39;6.40;;;5.80;;
39864;SDS011;25538;48.392;9.976;2022-10-31T07:30:06;5.53;;;5.03;;
39864;SDS011;25538;48.392;9.976;2022-10-31T07:32:51;6.03;;;4.63;;
39864;SDS011;25538;48.392;9.976;2022-10-31T07:35:19;6.70;;;5.55;;
39864;SDS011;25538;48.392;9.976;2022-10-31T07:37:47;9.32;;;6.95;;
39864;SDS011;25538;48.392;9.976;2022-10-31T07:40:13;7.40;;;6.40;;
39864;SDS011;25538;48.392;9.976;2022-10-31T07:42:43;7.75;;;6.95;;
39864;SDS011;25538;48.392;9.976;2022-10-31T07:45:13;13.13;;;6.85;;
39864;SDS011;25538;48.392;9.976;2022-10-31T07:47:44;13.35;;;8.20;;
39864;SDS011;25538;48.392;9.976;2022-10-31T07:50:12;7.97;;;6.35;;
39864;SDS011;25538;48.392;9.976;2022-10-31T07:52:40;11.55;;;7.10;;
39864;SDS011;25538;48.392;9.976;2022-10-31T07:55:06;7.50;;;6.80;;
39864;SDS011;25538;48.392;9.976;2022-10-31T07:57:33;7.20;;;6.60;;
39864;SDS011;25538;48.392;9.976;2022-10-31T07:59:59;7.80;;;6.72;;
39864;SDS011;25538;48.392;9.976;2022-10-31T08:02:25;11.20;;;7.73;;
39864;SDS011;25538;48.392;9.976;2022-10-31T08:04:51;10.98;;;7.68;;
39864;SDS011;25538;48.392;9.976;2022-10-31T08:07:17;7.93;;;6.95;;
39864;SDS011;25538;48.392;9.976;2022-10-31T08:09:43;9.02;;;7.15;;
39864;SDS011;25538;48.392;9.976;2022-10-31T08:12:09;9.40;;;8.43;;
39864;SDS011;25538;48.392;9.976;2022-10-31T08:14:35;9.60;;;8.60;;
39864;SDS011;25538;48.392;9.976;2022-10-31T08:17:01;10.30;;;6.93;;
39864;SDS011;25538;48.392;9.976;2022-10-31T08:19:27;10.17;;;6.90;;
39864;SDS011;25538;48.392;9.976;2022-10-31T08:21:53;8.60;;;7.80;;
39864;SDS011;25538;48.392;9.976;2022-10-31T08:24:23;9.73;;;7.40;;
39864;SDS011;25538;48.392;9.976;2022-10-31T08:26:49;13.10;;;7.33;;
39864;SDS011;25538;48.392;9.976;2022-10-31T08:29:15;8.80;;;7.13;;
39864;SDS011;25538;48.392;9.976;2022-10-31T08:31:41;7.77;;;7.07;;
39864;SDS011;25538;48.392;9.976;2022-10-31T08:34:08;7.40;;;6.70;;
39864;SDS011;25538;48.392;9.976;2022-10-31T08:36:34;7.43;;;6.73;;
39864;SDS011;25538;48.392;9.976;2022-10-31T08:39:00;7.67;;;6.80;;
39864;SDS011;25538;48.392;9.976;2022-10-31T08:41:27;8.47;;;7.67;;
39864;SDS011;25538;48.392;9.976;2022-10-31T08:43:54;8.43;;;7.60;;
39864;SDS011;25538;48.392;9.976;2022-10-31T08:46:20;8.50;;;7.60;;
39864;SDS011;25538;48.392;9.976;2022-10-31T08:48:49;7.40;;;6.47;;
39864;SDS011;25538;48.392;9.976;2022-10-31T08:51:15;6.87;;;6.20;;
39864;SDS011;25538;48.392;9.976;2022-10-31T08:53:41;15.97;;;7.60;;
39864;SDS011;25538;48.392;9.976;2022-10-31T08:56:07;11.50;;;6.40;;
39864;SDS011;25538;48.392;9.976;2022-10-31T08:58:33;7.93;;;6.77;;
39864;SDS011;25538;48.392;9.976;2022-10-31T09:00:59;7.13;;;6.43;;
39864;SDS011;25538;48.392;9.976;2022-10-31T09:03:27;8.23;;;7.53;;
39864;SDS011;25538;48.392;9.976;2022-10-31T09:05:55;8.97;;;6.53;;
39864;SDS011;25538;48.392;9.976;2022-10-31T09:08:23;12.57;;;7.80;;
39864;SDS011;25538;48.392;9.976;2022-10-31T09:10:49;8.20;;;7.40;;
39864;SDS011;25538;48.392;9.976;2022-10-31T09:13:19;9.60;;;8.37;;
39864;SDS011;25538;48.392;9.976;2022-10-31T09:15:47;13.23;;;8.17;;
39864;SDS011;25538;48.392;9.976;2022-10-31T09:18:15;9.87;;;8.50;;
39864;SDS011;25538;48.392;9.976;2022-10-31T09:20:42;8.43;;;7.53;;
39864;SDS011;25538;48.392;9.976;2022-10-31T09:23:10;8.00;;;7.30;;
39864;SDS011;25538;48.392;9.976;2022-10-31T09:25:38;12.90;;;8.97;;
39864;SDS011;25538;48.392;9.976;2022-10-31T09:28:05;11.03;;;8.80;;
39864;SDS011;25538;48.392;9.976;2022-10-31T09:30:33;11.33;;;8.10;;
39864;SDS011;25538;48.392;9.976;2022-10-31T09:33:01;11.03;;;7.53;;
39864;SDS011;25538;48.392;9.976;2022-10-31T09:35:29;8.23;;;7.27;;
39864;SDS011;25538;48.392;9.976;2022-10-31T09:37:59;8.70;;;7.53;;
39864;SDS011;25538;48.392;9.976;2022-10-31T09:40:37;9.77;;;7.87;;
39864;SDS011;25538;48.392;9.976;2022-10-31T09:46:31;8.73;;;7.87;;
39864;SDS011;25538;48.392;9.976;2022-10-31T09:49:37;9.23;;;7.80;;
39864;SDS011;25538;48.392;9.976;2022-10-31T09:52:13;9.10;;;8.30;;
39864;SDS011;25538;48.392;9.976;2022-10-31T09:54:48;8.77;;;8.07;;
39864;SDS011;25538;48.392;9.976;2022-10-31T09:57:28;9.07;;;8.17;;
39864;SDS011;25538;48.392;9.976;2022-10-31T09:59:59;10.87;;;8.90;;
39864;SDS011;25538;48.392;9.976;2022-10-31T10:02:30;11.03;;;9.13;;
39864;SDS011;25538;48.392;9.976;2022-10-31T10:05:04;9.53;;;8.60;;
39864;SDS011;25538;48.392;9.976;2022-10-31T10:07:41;9.70;;;8.80;;
39864;SDS011;25538;48.392;9.976;2022-10-31T10:16:20;10.90;;;10.00;;
39864;SDS011;25538;48.392;9.976;2022-10-31T10:19:25;11.20;;;10.00;;
39864;SDS011;25538;48.392;9.976;2022-10-31T10:27:22;11.30;;;10.33;;
39864;SDS011;25538;48.392;9.976;2022-10-31T10:29:57;11.60;;;10.50;;
39864;SDS011;25538;48.392;9.976;2022-10-31T10:32:29;16.80;;;13.47;;
39864;SDS011;25538;48.392;9.976;2022-10-31T10:35:19;19.07;;;15.57;;
39864;SDS011;25538;48.392;9.976;2022-10-31T10:38:02;23.77;;;21.47;;
39864;SDS011;25538;48.392;9.976;2022-10-31T10:40:47;23.10;;;20.70;;
39864;SDS011;25538;48.392;9.976;2022-10-31T10:49:00;30.60;;;27.70;;
39864;SDS011;25538;48.392;9.976;2022-10-31T10:51:43;29.77;;;26.53;;
39864;SDS011;25538;48.392;9.976;2022-10-31T10:59:48;18.63;;;16.83;;
39864;SDS011;25538;48.392;9.976;2022-10-31T11:02:19;18.97;;;15.30;;
39864;SDS011;25538;48.392;9.976;2022-10-31T11:04:49;17.70;;;15.80;;
39864;SDS011;25538;48.392;9.976;2022-10-31T11:07:17;17.63;;;16.03;;
39864;SDS011;25538;48.392;9.976;2022-10-31T11:09:43;18.73;;;15.67;;
39864;SDS011;25538;48.392;9.976;2022-10-31T11:12:10;20.03;;;18.03;;
39864;SDS011;25538;48.392;9.976;2022-10-31T11:14:46;20.93;;;18.77;;
39864;SDS011;25538;48.392;9.976;2022-10-31T11:17:36;17.77;;;16.07;;
39864;SDS011;25538;48.392;9.976;2022-10-31T11:20:16;19.07;;;14.90;;
39864;SDS011;25538;48.392;9.976;2022-10-31T11:25:57;16.13;;;14.60;;
39864;SDS011;25538;48.392;9.976;2022-10-31T11:28:28;14.23;;;12.83;;
39864;SDS011;25538;48.392;9.976;2022-10-31T11:30:58;15.77;;;14.37;;
39864;SDS011;25538;48.392;9.976;2022-10-31T11:35:51;15.77;;;14.10;;
39864;SDS011;25538;48.392;9.976;2022-10-31T11:38:20;16.10;;;14.50;;
39864;SDS011;25538;48.392;9.976;2022-10-31T11:41:24;18.60;;;14.90;;
39864;SDS011;25538;48.392;9.976;2022-10-31T11:43:48;18.60;;;16.77;;
39864;SDS011;25538;48.392;9.976;2022-10-31T11:49:59;18.10;;;16.47;;
39864;SDS011;25538;48.392;9.976;2022-10-31T11:52:04;19.70;;;16.80;;
39864;SDS011;25538;48.392;9.976;2022-10-31T11:54:34;16.37;;;14.97;;
39864;SDS011;25538;48.392;9.976;2022-10-31T11:57:59;13.87;;;12.57;;
39864;SDS011;25538;48.392;9.976;2022-10-31T12:02:50;15.70;;;14.40;;
39864;SDS011;25538;48.392;9.976;2022-10-31T12:05:21;17.83;;;16.10;;
39864;SDS011;25538;48.392;9.976;2022-10-31T12:07:50;15.80;;;14.23;;
39864;SDS011;25538;48.392;9.976;2022-10-31T12:10:17;18.30;;;16.43;;
39864;SDS011;25538;48.392;9.976;2022-10-31T12:13:08;19.97;;;17.77;;
39864;SDS011;25538;48.392;9.976;2022-10-31T12:15:58;24.00;;;21.83;;
39864;SDS011;25538;48.392;9.976;2022-10-31T12:27:03;24.70;;;22.13;;
39864;SDS011;25538;48.392;9.976;2022-10-31T12:29:44;29.90;;;26.80;;
39864;SDS011;25538;48.392;9.976;2022-10-31T12:32:18;30.30;;;27.77;;
39864;SDS011;25538;48.392;9.976;2022-10-31T12:51:32;38.73;;;35.10;;
39864;SDS011;25538;48.392;9.976;2022-10-31T12:54:06;36.30;;;32.60;;
39864;SDS011;25538;48.392;9.976;2022-10-31T12:59:40;30.07;;;27.07;;
39864;SDS011;25538;48.392;9.976;2022-10-31T13:04:52;40.53;;;36.97;;
39864;SDS011;25538;48.392;9.976;2022-10-31T13:07:24;43.97;;;39.83;;
39864;SDS011;25538;48.392;9.976;2022-10-31T13:10:00;41.37;;;37.67;;
39864;SDS011;25538;48.392;9.976;2022-10-31T13:12:28;47.37;;;42.87;;
39864;SDS011;25538;48.392;9.976;2022-10-31T13:14:59;46.00;;;41.47;;
39864;SDS011;25538;48.392;9.976;2022-10-31T13:17:42;49.37;;;44.57;;
39864;SDS011;25538;48.392;9.976;2022-10-31T13:20:25;50.03;;;44.73;;
39864;SDS011;25538;48.392;9.976;2022-10-31T13:26:14;54.70;;;48.97;;
39864;SDS011;25538;48.392;9.976;2022-10-31T13:29:10;55.80;;;50.40;;
39864;SDS011;25538;48.392;9.976;2022-10-31T13:31:48;54.30;;;48.73;;
39864;SDS011;25538;48.392;9.976;2022-10-31T13:34:34;44.20;;;40.20;;
39864;SDS011;25538;48.392;9.976;2022-10-31T13:42:48;38.33;;;34.13;;
39864;SDS011;25538;48.392;9.976;2022-10-31T13:45:25;32.37;;;29.07;;
39864;SDS011;25538;48.392;9.976;2022-10-31T13:47:55;27.20;;;24.80;;
39864;SDS011;25538;48.392;9.976;2022-10-31T13:50:40;24.27;;;21.80;;
39864;SDS011;25538;48.392;9.976;2022-10-31T13:53:11;26.47;;;22.43;;
39864;SDS011;25538;48.392;9.976;2022-10-31T13:55:40;22.40;;;20.30;;
39864;SDS011;25538;48.392;9.976;2022-10-31T13:58:27;20.90;;;18.90;;
39864;SDS011;25538;48.392;9.976;2022-10-31T14:03:42;20.90;;;18.60;;
39864;SDS011;25538;48.392;9.976;2022-10-31T14:06:11;19.53;;;17.67;;
39864;SDS011;25538;48.392;9.976;2022-10-31T14:08:39;18.67;;;16.83;;
39864;SDS011;25538;48.392;9.976;2022-10-31T14:11:17;18.17;;;16.57;;
39864;SDS011;25538;48.392;9.976;2022-10-31T14:13:53;19.80;;;17.20;;
39864;SDS011;25538;48.392;9.976;2022-10-31T14:16:23;32.33;;;29.73;;
39864;SDS011;25538;48.392;9.976;2022-10-31T14:19:02;33.47;;;30.47;;
39864;SDS011;25538;48.392;9.976;2022-10-31T14:21:39;28.30;;;25.73;;
39864;SDS011;25538;48.392;9.976;2022-10-31T14:24:14;30.83;;;28.00;;
39864;SDS011;25538;48.392;9.976;2022-10-31T14:27:00;32.13;;;28.20;;
39864;SDS011;25538;48.392;9.976;2022-10-31T14:29:27;30.53;;;27.77;;
39864;SDS011;25538;48.392;9.976;2022-10-31T14:34:50;32.63;;;29.53;;
39864;SDS011;25538;48.392;9.976;2022-10-31T14:43:05;32.80;;;29.60;;
39864;SDS011;25538;48.392;9.976;2022-10-31T14:48:30;32.23;;;28.90;;
39864;SDS011;25538;48.392;9.976;2022-10-31T14:51:03;30.93;;;28.00;;
39864;SDS011;25538;48.392;9.976;2022-10-31T14:53:51;30.63;;;28.00;;
39864;SDS011;25538;48.392;9.976;2022-10-31T14:56:29;29.10;;;26.43;;
39864;SDS011;25538;48.392;9.976;2022-10-31T14:59:02;26.77;;;24.33;;
39864;SDS011;25538;48.392;9.976;2022-10-31T15:01:35;26.90;;;23.97;;
39864;SDS011;25538;48.392;9.976;2022-10-31T15:06:44;24.93;;;22.70;;
39864;SDS011;25538;48.392;9.976;2022-10-31T15:09:54;24.70;;;22.37;;
39864;SDS011;25538;48.392;9.976;2022-10-31T15:15:22;26.53;;;24.43;;
39864;SDS011;25538;48.392;9.976;2022-10-31T15:17:53;23.70;;;21.57;;
39864;SDS011;25538;48.392;9.976;2022-10-31T15:20:30;22.47;;;20.37;;
39864;SDS011;25538;48.392;9.976;2022-10-31T15:23:01;24.87;;;21.20;;
39864;SDS011;25538;48.392;9.976;2022-10-31T15:25:30;23.80;;;21.43;;
39864;SDS011;25538;48.392;9.976;2022-10-31T15:27:59;23.43;;;21.33;;
39864;SDS011;25538;48.392;9.976;2022-10-31T15:30:26;26.33;;;23.83;;
39864;SDS011;25538;48.392;9.976;2022-10-31T15:32:54;30.00;;;27.20;;
39864;SDS011;25538;48.392;9.976;2022-10-31T15:35:25;31.60;;;28.57;;
39864;SDS011;25538;48.392;9.976;2022-10-31T15:37:52;30.30;;;27.30;;
39864;SDS011;25538;48.392;9.976;2022-10-31T15:40:19;33.40;;;29.80;;
39864;SDS011;25538;48.392;9.976;2022-10-31T15:42:57;35.30;;;31.90;;
39864;SDS011;25538;48.392;9.976;2022-10-31T15:45:26;36.73;;;32.93;;
39864;SDS011;25538;48.392;9.976;2022-10-31T15:50:30;37.53;;;33.63;;
39864;SDS011;25538;48.392;9.976;2022-10-31T15:52:57;37.87;;;34.20;;
39864;SDS011;25538;48.392;9.976;2022-10-31T15:55:25;34.50;;;31.40;;
39864;SDS011;25538;48.392;9.976;2022-10-31T15:58:10;33.87;;;30.60;;
39864;SDS011;25538;48.392;9.976;2022-10-31T16:00:39;33.33;;;29.80;;
39864;SDS011;25538;48.392;9.976;2022-10-31T16:05:44;32.03;;;28.73;;
39864;SDS011;25538;48.392;9.976;2022-10-31T16:10:59;31.33;;;28.43;;
39864;SDS011;25538;48.392;9.976;2022-10-31T16:13:35;30.70;;;27.80;;
39864;SDS011;25538;48.392;9.976;2022-10-31T16:16:04;28.90;;;26.20;;
39864;SDS011;25538;48.392;9.976;2022-10-31T16:18:37;27.90;;;24.97;;
39864;SDS011;25538;48.392;9.976;2022-10-31T16:21:06;28.13;;;25.13;;
39864;SDS011;25538;48.392;9.976;2022-10-31T16:23:34;27.40;;;24.60;;
39864;SDS011;25538;48.392;9.976;2022-10-31T16:26:05;29.97;;;27.00;;
39864;SDS011;25538;48.392;9.976;2022-10-31T16:28:32;29.20;;;26.17;;
39864;SDS011;25538;48.392;9.976;2022-10-31T16:30:59;30.48;;;25.67;;
39864;SDS011;25538;48.392;9.976;2022-10-31T16:35:59;28.47;;;25.67;;
39864;SDS011;25538;48.392;9.976;2022-10-31T16:38:28;29.27;;;26.45;;
39864;SDS011;25538;48.392;9.976;2022-10-31T16:40:54;28.23;;;25.63;;
39864;SDS011;25538;48.392;9.976;2022-10-31T16:43:20;29.67;;;26.87;;
39864;SDS011;25538;48.392;9.976;2022-10-31T16:45:48;28.17;;;25.20;;
39864;SDS011;25538;48.392;9.976;2022-10-31T16:48:16;30.23;;;27.23;;
39864;SDS011;25538;48.392;9.976;2022-10-31T16:50:46;34.70;;;31.33;;
39864;SDS011;25538;48.392;9.976;2022-10-31T16:53:13;33.00;;;29.50;;
39864;SDS011;25538;48.392;9.976;2022-10-31T16:55:57;35.90;;;32.17;;
39864;SDS011;25538;48.392;9.976;2022-10-31T16:58:25;36.30;;;30.30;;
39864;SDS011;25538;48.392;9.976;2022-10-31T17:00:53;32.85;;;29.52;;
39864;SDS011;25538;48.392;9.976;2022-10-31T17:03:19;32.80;;;29.38;;
39864;SDS011;25538;48.392;9.976;2022-10-31T17:05:45;37.95;;;34.35;;
39864;SDS011;25538;48.392;9.976;2022-10-31T17:08:11;39.73;;;35.80;;
39864;SDS011;25538;48.392;9.976;2022-10-31T17:10:38;40.75;;;36.47;;
39864;SDS011;25538;48.392;9.976;2022-10-31T17:13:06;45.15;;;40.72;;
39864;SDS011;25538;48.392;9.976;2022-10-31T17:15:44;44.25;;;39.92;;
39864;SDS011;25538;48.392;9.976;2022-10-31T17:18:15;50.05;;;44.67;;
39864;SDS011;25538;48.392;9.976;2022-10-31T17:20:42;46.88;;;41.25;;
39864;SDS011;25538;48.392;9.976;2022-10-31T17:23:12;46.40;;;39.13;;